Terminal Aerodrome Forecast
Issued by NWS Shreveport, LA

Home | Current Version | Previous Version | Text Only | Print | Product List | Glossary On
Versions: 1 2 3 4 5 6 7 8 9 10 11 12 13 14 15 16 17 18 19 20
448
FTUS44 KSHV 270539
TAFMLU
TAF
KMLU 270539Z 2706/2806 30012G18KT P6SM OVC015
      TEMPO 2706/2708 OVC010
     FM271000 30005KT P6SM SKC
      TEMPO 2710/2712 BKN025
     FM272000 18006KT P6SM SKC=

USA.gov is the U.S. government's official web portal to all federal, state and local government web resources and services.